createdAt,value
2022-12-15T00:00:03.135Z,20.98
2022-12-15T00:02:48.634Z,23.77
2022-12-15T00:05:34.400Z,24.65
2022-12-15T00:08:25.925Z,20.23
2022-12-15T00:11:11.753Z,21.35
2022-12-15T00:14:00.512Z,24.15
2022-12-15T00:16:46.083Z,19.88
2022-12-15T00:19:31.411Z,17.48
2022-12-15T00:22:16.874Z,19.42
2022-12-15T00:25:02.335Z,16.95
2022-12-15T00:27:48.386Z,17.35
2022-12-15T00:30:35.629Z,18.60
2022-12-15T00:33:26.527Z,19.00
2022-12-15T00:36:12.332Z,20.10
2022-12-15T00:38:46.404Z,18.02
2022-12-15T00:41:17.688Z,18.05
2022-12-15T00:43:46.523Z,19.00
2022-12-15T00:46:33.785Z,26.45
2022-12-15T00:49:02.501Z,23.92
2022-12-15T00:51:48.424Z,20.98
2022-12-15T00:54:33.852Z,16.90
2022-12-15T00:57:19.557Z,18.75
2022-12-15T01:00:05.403Z,20.20
2022-12-15T01:02:52.453Z,18.77
2022-12-15T01:05:38.299Z,19.90
2022-12-15T01:08:24.166Z,18.85
2022-12-15T01:11:09.481Z,20.40
2022-12-15T01:13:54.942Z,22.20
2022-12-15T01:16:40.346Z,18.65
2022-12-15T01:19:28.500Z,20.50
2022-12-15T01:21:56.686Z,19.67
2022-12-15T01:24:25.027Z,19.55
2022-12-15T01:26:53.197Z,21.70
2022-12-15T01:29:21.473Z,19.10
2022-12-15T01:31:50.536Z,21.88
2022-12-15T01:34:22.755Z,18.77
2022-12-15T01:36:51.039Z,22.27
2022-12-15T01:39:19.391Z,18.98
2022-12-15T01:41:46.604Z,25.77
2022-12-15T01:44:19.623Z,19.80
2022-12-15T01:46:49.641Z,18.08
2022-12-15T01:49:23.575Z,19.58
2022-12-15T01:51:54.541Z,20.33
2022-12-15T01:54:25.246Z,19.40
2022-12-15T01:56:58.096Z,21.43
2022-12-15T01:59:30.223Z,18.20
2022-12-15T02:01:58.530Z,18.55
2022-12-15T02:04:28.518Z,18.77
2022-12-15T02:06:56.794Z,19.70
2022-12-15T02:09:27.621Z,19.70
2022-12-15T02:12:03.299Z,18.97
2022-12-15T02:14:46.997Z,20.80
2022-12-15T02:17:23.283Z,15.48
2022-12-15T02:20:22.031Z,17.73
2022-12-15T02:23:14.827Z,17.77
2022-12-15T02:25:56.185Z,14.88
2022-12-15T02:28:38.677Z,15.32
2022-12-15T02:31:28.850Z,15.52
2022-12-15T02:34:07.089Z,17.83
2022-12-15T02:36:38.274Z,17.48
2022-12-15T02:39:06.632Z,14.98
2022-12-15T02:41:38.240Z,16.20
2022-12-15T02:44:11.436Z,16.20
2022-12-15T02:46:54.896Z,17.45
2022-12-15T02:49:32.026Z,15.32
2022-12-15T02:52:11.836Z,14.98
2022-12-15T02:54:58.469Z,16.92
2022-12-15T02:57:35.536Z,12.90
2022-12-15T03:00:10.621Z,14.73
2022-12-15T03:02:43.193Z,12.05
2022-12-15T03:05:13.309Z,12.73
2022-12-15T03:07:42.820Z,13.07
2022-12-15T03:10:13.652Z,14.00
2022-12-15T03:12:42.077Z,15.95
2022-12-15T03:15:11.161Z,16.02
2022-12-15T03:17:40.987Z,15.05
2022-12-15T03:20:10.461Z,15.88
2022-12-15T03:22:39.380Z,15.15
2022-12-15T03:25:08.167Z,11.93
2022-12-15T03:27:37.898Z,13.82
2022-12-15T03:30:07.577Z,15.25
2022-12-15T03:32:36.120Z,15.80
2022-12-15T03:35:06.341Z,11.48
2022-12-15T03:37:34.582Z,15.93
2022-12-15T03:40:02.866Z,13.75
2022-12-15T03:42:49.234Z,16.00
2022-12-15T03:45:19.323Z,14.55
2022-12-15T03:47:48.552Z,12.57
2022-12-15T03:50:20.544Z,16.23
2022-12-15T03:52:53.434Z,17.02
2022-12-15T03:55:22.104Z,12.90
2022-12-15T03:57:51.098Z,12.90
2022-12-15T04:00:21.371Z,12.50
2022-12-15T04:02:50.606Z,13.55
2022-12-15T04:05:21.983Z,12.90
2022-12-15T04:07:50.230Z,12.90
2022-12-15T04:10:18.756Z,13.77
2022-12-15T04:12:49.859Z,11.88
2022-12-15T04:15:18.230Z,13.48
2022-12-15T04:17:46.504Z,13.98
2022-12-15T04:20:14.693Z,18.08
2022-12-15T04:22:46.395Z,16.90
2022-12-15T04:28:19.317Z,14.95
2022-12-15T04:31:09.366Z,14.30
2022-12-15T04:33:56.125Z,13.32
2022-12-15T04:36:41.900Z,14.18
2022-12-15T04:39:29.119Z,14.85
2022-12-15T04:42:17.506Z,14.52
2022-12-15T04:45:03.757Z,13.77
2022-12-15T04:47:49.100Z,14.20
2022-12-15T04:50:35.312Z,12.60
2022-12-15T04:53:27.674Z,13.05
2022-12-15T04:56:18.405Z,12.80
2022-12-15T04:59:04.773Z,10.80
2022-12-15T05:01:50.528Z,12.77
2022-12-15T05:04:36.366Z,13.45
2022-12-15T05:07:22.479Z,11.35
2022-12-15T05:10:14.403Z,11.90
2022-12-15T05:13:02.661Z,13.60
2022-12-15T05:15:48.756Z,12.32
2022-12-15T05:18:34.319Z,12.50
2022-12-15T05:21:19.727Z,13.00
2022-12-15T05:24:05.129Z,14.43
2022-12-15T05:26:53.176Z,12.38
2022-12-15T05:29:40.673Z,11.80
2022-12-15T05:32:09.235Z,14.40
2022-12-15T05:34:38.381Z,15.98
2022-12-15T05:37:07.506Z,16.50
2022-12-15T05:39:35.887Z,20.42
2022-12-15T05:42:04.508Z,17.27
2022-12-15T05:44:34.255Z,20.63
2022-12-15T05:47:02.463Z,16.58
2022-12-15T05:49:30.848Z,18.05
2022-12-15T05:51:59.388Z,16.33
2022-12-15T05:54:27.618Z,14.40
2022-12-15T05:56:55.903Z,14.82
2022-12-15T05:59:24.118Z,15.15
2022-12-15T06:01:53.860Z,17.42
2022-12-15T06:04:22.219Z,23.20
2022-12-15T06:06:50.621Z,16.70
2022-12-15T06:09:18.859Z,18.15
2022-12-15T06:11:47.132Z,21.80
2022-12-15T06:14:15.537Z,16.85
2022-12-15T06:16:50.068Z,16.88
2022-12-15T06:19:21.188Z,21.35
2022-12-15T06:21:49.474Z,21.90
2022-12-15T06:24:18.387Z,19.65
2022-12-15T06:26:46.848Z,22.48
2022-12-15T06:29:18.393Z,22.15
2022-12-15T06:31:46.800Z,19.52
2022-12-15T06:34:17.133Z,21.38
2022-12-15T06:36:46.829Z,23.40
2022-12-15T06:39:17.875Z,20.17
2022-12-15T06:41:46.665Z,23.15
2022-12-15T06:44:16.245Z,20.17
2022-12-15T06:46:46.198Z,23.52
2022-12-15T06:49:15.048Z,22.77
2022-12-15T06:51:44.918Z,19.10
2022-12-15T06:54:14.723Z,19.58
2022-12-15T06:56:43.448Z,19.10
2022-12-15T06:59:12.918Z,22.00
2022-12-15T07:01:42.237Z,28.98
2022-12-15T07:04:11.418Z,32.38
2022-12-15T07:06:42.425Z,23.90
2022-12-15T07:09:17.195Z,27.33
2022-12-15T07:11:46.439Z,23.67
2022-12-15T07:14:14.680Z,28.35
2022-12-15T07:16:42.925Z,28.48
2022-12-15T07:19:13.548Z,29.70
2022-12-15T07:21:42.533Z,29.55
2022-12-15T07:24:12.874Z,31.25
2022-12-15T07:26:42.869Z,25.20
2022-12-15T07:29:14.890Z,21.73
2022-12-15T07:31:46.127Z,20.02
2022-12-15T07:34:14.452Z,21.20
2022-12-15T07:36:47.035Z,21.27
2022-12-15T07:39:18.333Z,23.75
2022-12-15T07:41:47.994Z,27.00
2022-12-15T07:44:16.295Z,31.67
2022-12-15T07:46:46.950Z,26.33
2022-12-15T07:49:15.163Z,24.20
2022-12-15T07:51:43.345Z,26.00
2022-12-15T07:54:12.567Z,24.55
2022-12-15T07:56:41.177Z,24.02
2022-12-15T07:59:11.201Z,21.60
2022-12-15T08:01:39.493Z,22.98
2022-12-15T08:04:08.414Z,18.60
2022-12-15T08:06:36.635Z,28.08
2022-12-15T08:09:05.090Z,24.10
2022-12-15T08:11:35.395Z,29.85
2022-12-15T08:14:05.693Z,28.08
2022-12-15T08:16:37.756Z,31.40
2022-12-15T08:19:06.730Z,43.17
2022-12-15T08:21:35.118Z,29.20
2022-12-15T08:24:03.318Z,36.80
2022-12-15T08:26:31.838Z,42.90
2022-12-15T08:29:40.486Z,32.90
2022-12-15T08:31:54.409Z,35.13
2022-12-15T08:34:23.126Z,29.23
2022-12-15T08:36:51.331Z,35.47
2022-12-15T08:39:20.475Z,32.05
2022-12-15T08:41:48.873Z,30.25
2022-12-15T08:44:17.417Z,29.83
2022-12-15T08:46:45.876Z,24.55
2022-12-15T08:49:21.429Z,25.83
2022-12-15T08:51:50.685Z,20.60
2022-12-15T08:54:20.342Z,21.10
2022-12-15T08:56:48.604Z,25.50
2022-12-15T08:59:16.930Z,23.42
2022-12-15T09:01:45.395Z,22.75
2022-12-15T09:04:15.507Z,27.20
2022-12-15T09:06:44.197Z,28.00
2022-12-15T09:09:16.790Z,26.05
2022-12-15T09:11:45.020Z,50.13
2022-12-15T09:14:13.256Z,35.15
2022-12-15T09:16:41.544Z,30.88
2022-12-15T09:19:11.241Z,30.15
2022-12-15T09:21:44.952Z,25.00
2022-12-15T09:24:20.549Z,29.50
2022-12-15T09:26:53.139Z,25.80
2022-12-15T09:29:21.421Z,25.35
2022-12-15T09:31:49.739Z,32.25
2022-12-15T09:34:17.987Z,30.23
2022-12-15T09:36:47.676Z,34.55
2022-12-15T09:39:18.691Z,29.42
2022-12-15T09:41:54.662Z,30.15
2022-12-15T09:44:25.652Z,24.75
2022-12-15T09:47:06.107Z,22.17
2022-12-15T09:49:56.630Z,22.88
2022-12-15T09:52:29.249Z,20.65
2022-12-15T09:54:58.207Z,22.10
2022-12-15T09:57:34.356Z,23.75
2022-12-15T10:00:12.732Z,25.23
2022-12-15T10:03:17.501Z,20.75
2022-12-15T10:08:54.562Z,20.42
2022-12-15T10:11:38.187Z,17.23
2022-12-15T10:14:16.811Z,17.88
2022-12-15T10:16:54.964Z,17.98
2022-12-15T10:19:28.212Z,16.08
2022-12-15T10:21:58.361Z,21.02
2022-12-15T10:25:07.858Z,18.33
2022-12-15T10:27:33.935Z,20.50
2022-12-15T10:30:03.716Z,18.05
2022-12-15T10:32:43.876Z,18.23
2022-12-15T10:35:17.624Z,20.05
2022-12-15T10:37:45.887Z,19.88
2022-12-15T10:40:41.528Z,20.85
2022-12-15T10:43:15.189Z,17.90
2022-12-15T10:45:43.581Z,16.67
2022-12-15T10:48:20.580Z,17.63
2022-12-15T10:50:50.184Z,22.20
2022-12-15T10:53:35.814Z,21.67
2022-12-15T10:56:09.506Z,21.77
2022-12-15T10:58:50.153Z,18.60
2022-12-15T11:01:21.005Z,17.35
2022-12-15T11:03:52.798Z,18.40
2022-12-15T11:06:23.526Z,15.95
2022-12-15T11:08:54.319Z,16.85
2022-12-15T11:11:50.577Z,17.27
2022-12-15T11:14:24.135Z,16.02
2022-12-15T11:16:55.369Z,21.30
2022-12-15T11:19:39.997Z,19.02
2022-12-15T11:22:15.470Z,19.02
2022-12-15T11:24:51.483Z,21.30
2022-12-15T11:27:28.335Z,22.60
2022-12-15T11:30:03.585Z,18.83
2022-12-15T11:32:36.327Z,19.25
2022-12-15T11:35:04.921Z,18.48
2022-12-15T11:37:42.867Z,18.73
2022-12-15T11:40:35.853Z,20.02
2022-12-15T11:43:36.761Z,17.05
2022-12-15T11:46:20.450Z,13.63
2022-12-15T11:49:00.781Z,16.85
2022-12-15T11:51:36.677Z,17.17
2022-12-15T11:54:16.672Z,19.58
2022-12-15T12:00:03.117Z,15.38
2022-12-15T12:02:52.663Z,15.65
2022-12-15T12:05:46.711Z,18.42
2022-12-15T12:08:29.396Z,13.32
2022-12-15T12:11:06.562Z,18.08
2022-12-15T12:13:41.988Z,16.13
2022-12-15T12:16:27.260Z,16.30
2022-12-15T12:19:02.323Z,16.52
2022-12-15T12:21:36.076Z,19.30
2022-12-15T12:24:12.796Z,17.48
2022-12-15T12:26:46.356Z,14.48
2022-12-15T12:29:22.540Z,14.00
2022-12-15T12:32:05.183Z,16.65
2022-12-15T12:34:42.325Z,17.13
2022-12-15T12:37:17.747Z,20.35
2022-12-15T12:39:46.788Z,15.18
2022-12-15T12:42:19.452Z,19.00
2022-12-15T12:47:41.146Z,18.25
2022-12-15T12:50:18.941Z,20.48
2022-12-15T12:52:53.119Z,19.55
2022-12-15T12:55:30.745Z,17.13
2022-12-15T12:57:59.104Z,15.15
2022-12-15T13:00:29.032Z,22.10
2022-12-15T13:03:21.034Z,18.92
2022-12-15T13:05:51.711Z,18.92
2022-12-15T13:08:45.313Z,16.52
2022-12-15T13:11:55.555Z,16.60
2022-12-15T13:14:34.712Z,17.98
2022-12-15T13:20:26.142Z,19.30
2022-12-15T13:22:56.408Z,22.95
2022-12-15T13:25:53.664Z,18.40
2022-12-15T13:28:31.742Z,18.95
2022-12-15T13:31:43.237Z,21.30
2022-12-15T13:34:21.097Z,19.20
2022-12-15T13:37:02.446Z,18.58
2022-12-15T13:39:58.197Z,19.98
2022-12-15T13:42:47.282Z,17.17
2022-12-15T13:45:50.541Z,20.80
2022-12-15T13:48:28.384Z,16.85
2022-12-15T13:51:04.536Z,18.08
2022-12-15T13:53:41.559Z,19.73
2022-12-15T13:56:26.746Z,20.63
2022-12-15T13:59:01.306Z,17.98
2022-12-15T14:01:33.330Z,19.23
2022-12-15T14:04:06.912Z,20.42
2022-12-15T14:06:46.252Z,19.13
2022-12-15T14:09:20.371Z,20.10
2022-12-15T14:11:54.221Z,20.08
2022-12-15T14:14:26.369Z,17.05
2022-12-15T14:16:58.980Z,21.42
2022-12-15T14:19:30.908Z,22.05
2022-12-15T14:22:01.810Z,22.25
2022-12-15T14:27:27.099Z,23.20
2022-12-15T14:30:24.917Z,22.98
2022-12-15T14:32:59.317Z,19.48
2022-12-15T14:35:32.413Z,21.60
2022-12-15T14:38:05.132Z,21.98
2022-12-15T14:40:37.570Z,21.85
2022-12-15T14:43:07.691Z,25.67
2022-12-15T14:45:35.940Z,27.35
2022-12-15T14:51:01.399Z,21.70
2022-12-15T14:53:34.438Z,20.63
2022-12-15T14:56:29.500Z,24.80
2022-12-15T14:59:04.261Z,23.95
2022-12-15T15:01:40.057Z,19.23
2022-12-15T15:03:09.280Z,17.95
2022-12-15T15:03:09.452Z,17.08
2022-12-15T15:03:09.675Z,16.45
2022-12-15T15:03:11.154Z,16.05
2022-12-15T15:04:29.287Z,23.42
2022-12-15T15:06:59.527Z,20.48
2022-12-15T15:09:30.523Z,20.92
2022-12-15T15:12:03.717Z,24.20
2022-12-15T15:14:34.495Z,23.00
2022-12-15T15:17:09.781Z,20.47
2022-12-15T15:19:40.209Z,21.55
2022-12-15T15:22:21.716Z,22.27
2022-12-15T15:24:52.793Z,28.52
2022-12-15T15:27:39.932Z,24.13
2022-12-15T15:30:17.135Z,19.15
2022-12-15T15:32:53.862Z,19.73
2022-12-15T15:35:22.828Z,21.73
2022-12-15T15:37:52.812Z,18.52
2022-12-15T15:40:21.032Z,23.33
2022-12-15T15:42:53.497Z,26.98
2022-12-15T15:45:21.738Z,23.88
2022-12-15T15:47:52.782Z,23.30
2022-12-15T15:50:30.073Z,26.42
2022-12-15T15:52:58.772Z,21.55
2022-12-15T15:55:33.686Z,21.42
2022-12-15T15:58:12.925Z,19.88
2022-12-15T16:00:41.548Z,23.45
2022-12-15T16:03:10.904Z,21.17
2022-12-15T16:05:40.838Z,19.30
2022-12-15T16:08:14.485Z,24.60
2022-12-15T16:10:45.522Z,24.35
2022-12-15T16:13:20.781Z,24.00
2022-12-15T16:15:52.295Z,24.23
2022-12-15T16:18:20.594Z,23.45
2022-12-15T16:20:52.208Z,25.50
2022-12-15T16:23:23.712Z,26.88
2022-12-15T16:25:54.496Z,26.33
2022-12-15T16:28:25.635Z,25.73
2022-12-15T16:30:54.120Z,29.50
2022-12-15T16:33:22.591Z,28.38
2022-12-15T16:35:52.226Z,31.58
2022-12-15T16:38:25.519Z,27.38
2022-12-15T16:40:55.549Z,29.42
2022-12-15T16:43:32.913Z,26.85
2022-12-15T16:46:04.871Z,29.10
2022-12-15T16:48:33.546Z,25.58
2022-12-15T16:51:02.658Z,26.85
2022-12-15T16:53:34.240Z,27.55
2022-12-15T16:56:06.381Z,34.92
2022-12-15T16:58:37.310Z,26.90
2022-12-15T17:01:05.896Z,33.35
2022-12-15T17:03:34.327Z,33.22
2022-12-15T17:06:05.932Z,32.17
2022-12-15T17:08:40.107Z,27.58
2022-12-15T17:11:13.077Z,32.05
2022-12-15T17:13:45.991Z,32.17
2022-12-15T17:16:15.292Z,29.05
2022-12-15T17:18:44.631Z,29.38
2022-12-15T17:21:17.388Z,28.48
2022-12-15T17:23:46.419Z,33.42
2022-12-15T17:26:27.564Z,32.53
2022-12-15T17:29:02.295Z,41.20
2022-12-15T17:31:35.713Z,39.53
2022-12-15T17:34:23.094Z,34.53
2022-12-15T17:36:51.367Z,32.10
2022-12-15T17:39:20.816Z,34.38
2022-12-15T17:42:05.836Z,32.40
2022-12-15T17:44:38.322Z,32.45
2022-12-15T17:47:09.118Z,30.35
2022-12-15T17:49:38.849Z,33.90
2022-12-15T17:52:16.479Z,31.70
2022-12-15T17:54:44.942Z,32.92
2022-12-15T17:57:13.705Z,32.22
2022-12-15T17:59:43.375Z,33.17
2022-12-15T18:02:14.446Z,34.28
2022-12-15T18:04:43.479Z,35.25
2022-12-15T18:07:17.328Z,35.58
2022-12-15T18:09:45.816Z,36.90
2022-12-15T18:12:19.479Z,38.25
2022-12-15T18:14:49.536Z,35.30
2022-12-15T18:17:17.767Z,33.60
2022-12-15T18:19:46.569Z,36.90
2022-12-15T18:22:18.314Z,35.40
2022-12-15T18:27:23.781Z,35.90
2022-12-15T18:29:54.055Z,37.50
2022-12-15T18:32:24.011Z,37.30
2022-12-15T18:34:53.576Z,38.03
2022-12-15T18:37:23.731Z,32.33
2022-12-15T18:39:52.235Z,42.42
2022-12-15T18:42:23.303Z,30.70
2022-12-15T18:44:54.257Z,36.05
2022-12-15T18:47:25.002Z,35.50
2022-12-15T18:49:53.401Z,34.85
2022-12-15T18:52:23.397Z,37.90
2022-12-15T18:54:54.190Z,43.22
2022-12-15T18:57:28.438Z,35.60
2022-12-15T19:00:00.155Z,37.13
2022-12-15T19:04:56.664Z,35.03
2022-12-15T19:07:24.946Z,31.98
2022-12-15T19:09:53.560Z,31.48
2022-12-15T19:12:21.848Z,36.05
2022-12-15T19:14:51.920Z,40.13
2022-12-15T19:17:40.590Z,38.67
2022-12-15T19:20:35.322Z,38.15
2022-12-15T19:23:03.611Z,39.17
2022-12-15T19:25:32.524Z,35.28
2022-12-15T19:28:02.223Z,35.25
2022-12-15T19:30:37.006Z,35.67
2022-12-15T19:33:11.350Z,30.75
2022-12-15T19:35:41.448Z,33.97
2022-12-15T19:38:15.838Z,32.80
2022-12-15T19:40:44.072Z,38.13
2022-12-15T19:43:15.780Z,35.35
2022-12-15T19:48:16.532Z,31.55
2022-12-15T19:50:48.496Z,29.20
2022-12-15T19:53:24.207Z,32.42
2022-12-15T19:55:53.984Z,27.52
2022-12-15T19:58:28.044Z,36.38
2022-12-15T20:00:57.875Z,36.92
2022-12-15T20:03:28.538Z,35.35
2022-12-15T20:05:59.029Z,37.28
2022-12-15T20:08:29.697Z,36.63
2022-12-15T20:10:58.060Z,34.60
2022-12-15T20:13:27.161Z,36.47
2022-12-15T20:15:55.736Z,33.60
2022-12-15T20:18:24.085Z,34.67
2022-12-15T20:20:55.983Z,39.08
2022-12-15T20:23:27.647Z,35.53
2022-12-15T20:28:25.943Z,33.70
2022-12-15T20:30:56.059Z,31.65
2022-12-15T20:33:24.662Z,38.33
2022-12-15T20:35:55.179Z,34.90
2022-12-15T20:38:29.877Z,37.08
2022-12-15T20:40:58.869Z,35.42
2022-12-15T20:43:31.229Z,35.53
2022-12-15T20:46:05.094Z,36.58
2022-12-15T20:48:34.849Z,32.45
2022-12-15T20:51:09.205Z,33.58
2022-12-15T20:53:39.059Z,34.58
2022-12-15T20:56:08.453Z,37.58
2022-12-15T20:58:40.024Z,32.63
2022-12-15T21:01:25.843Z,36.25
2022-12-15T21:03:56.625Z,37.88
2022-12-15T21:06:27.526Z,31.88
2022-12-15T21:08:57.784Z,31.73
2022-12-15T21:11:28.274Z,31.77
2022-12-15T21:14:03.733Z,31.48
2022-12-15T21:16:33.142Z,32.00
2022-12-15T21:19:20.247Z,31.77
2022-12-15T21:21:55.341Z,31.50
2022-12-15T21:24:26.032Z,30.10
2022-12-15T21:29:47.272Z,33.53
2022-12-15T21:32:18.853Z,28.70
2022-12-15T21:34:47.099Z,30.55
2022-12-15T21:37:23.937Z,28.92
2022-12-15T21:39:52.330Z,28.88
2022-12-15T21:42:21.914Z,29.20
2022-12-15T21:44:50.115Z,31.90
2022-12-15T21:47:26.292Z,32.85
2022-12-15T21:49:53.554Z,32.25
2022-12-15T21:52:26.899Z,24.60
2022-12-15T21:57:25.464Z,26.95
2022-12-15T21:59:53.652Z,26.08
2022-12-15T22:02:27.001Z,26.88
2022-12-15T22:04:55.410Z,32.33
2022-12-15T22:07:25.061Z,30.60
2022-12-15T22:09:53.541Z,28.05
2022-12-15T22:12:23.675Z,30.55
2022-12-15T22:14:52.177Z,31.60
2022-12-15T22:17:22.772Z,30.15
2022-12-15T22:19:50.974Z,32.20
2022-12-15T22:22:20.244Z,33.38
2022-12-15T22:24:49.917Z,30.13
2022-12-15T22:27:20.618Z,32.25
2022-12-15T22:29:49.619Z,28.40
2022-12-15T22:32:18.113Z,24.88
2022-12-15T22:34:46.319Z,27.08
2022-12-15T22:37:14.633Z,29.00
2022-12-15T22:39:42.899Z,30.38
2022-12-15T22:42:17.753Z,30.77
2022-12-15T22:44:46.353Z,30.55
2022-12-15T22:47:14.732Z,27.05
2022-12-15T22:49:43.548Z,28.17
2022-12-15T22:52:17.776Z,27.52
2022-12-15T22:54:46.283Z,26.08
2022-12-15T22:57:21.895Z,27.17
2022-12-15T23:00:00.484Z,33.67
2022-12-15T23:02:29.732Z,27.90
2022-12-15T23:04:58.139Z,27.17
2022-12-15T23:07:26.957Z,26.75
2022-12-15T23:10:15.288Z,28.02
2022-12-15T23:12:44.001Z,26.42
2022-12-15T23:15:30.207Z,25.88
2022-12-15T23:17:58.414Z,25.27
2022-12-15T23:20:26.909Z,28.27
2022-12-15T23:22:55.197Z,23.45
2022-12-15T23:25:23.366Z,23.45
2022-12-15T23:27:53.020Z,22.13
2022-12-15T23:30:21.296Z,22.65
2022-12-15T23:32:52.076Z,24.42
2022-12-15T23:35:23.472Z,21.73
2022-12-15T23:37:51.690Z,21.80
2022-12-15T23:40:22.248Z,22.38
2022-12-15T23:42:52.640Z,21.87
2022-12-15T23:45:21.532Z,27.75
2022-12-15T23:47:49.918Z,24.57
2022-12-15T23:50:18.476Z,22.00
2022-12-15T23:52:51.198Z,22.48
2022-12-15T23:55:20.381Z,26.08
2022-12-15T23:57:48.637Z,24.17
